createdAt,value
2019-05-10T00:00:03.231Z,99459.48
2019-05-10T00:02:28.435Z,99454.20
2019-05-10T00:04:53.422Z,99455.37
2019-05-10T00:07:18.434Z,99456.36
2019-05-10T00:09:24.612Z,99458.38
2019-05-10T00:11:59.490Z,99460.19
2019-05-10T00:14:22.029Z,99457.16
2019-05-10T00:16:29.330Z,99453.91
2019-05-10T00:18:36.722Z,99448.73
2019-05-10T00:20:44.052Z,99450.44
2019-05-10T00:22:51.285Z,99455.71
2019-05-10T00:25:04.305Z,99456.12
2019-05-10T00:27:07.494Z,99452.52
2019-05-10T00:29:14.721Z,99455.22
2019-05-10T00:31:22.041Z,99447.97
2019-05-10T00:33:29.553Z,99443.09
2019-05-10T00:35:36.759Z,99447.49
2019-05-10T00:37:44.417Z,99446.14
2019-05-10T00:39:51.720Z,99448.20
2019-05-10T00:41:58.985Z,99447.19
2019-05-10T00:44:06.431Z,99450.88
2019-05-10T00:46:13.779Z,99455.45
2019-05-10T00:48:21.036Z,99447.77
2019-05-10T00:50:28.442Z,99446.47
2019-05-10T00:52:35.746Z,99450.88
2019-05-10T00:56:45.371Z,99454.14
2019-05-10T00:58:52.604Z,99453.27
2019-05-10T01:00:59.948Z,99451.02
2019-05-10T01:03:07.328Z,99457.80
2019-05-10T01:05:14.950Z,99448.41
2019-05-10T01:07:22.422Z,99455.47
2019-05-10T01:09:29.728Z,99448.81
2019-05-10T01:11:37.086Z,99446.17
2019-05-10T01:13:44.433Z,99448.05
2019-05-10T01:15:52.118Z,99446.47
2019-05-10T01:17:59.622Z,99453.80
2019-05-10T01:20:07.626Z,99452.31
2019-05-10T01:22:15.055Z,99448.19
2019-05-10T01:24:22.346Z,99454.03
2019-05-10T01:26:29.716Z,99460.36
2019-05-10T01:28:36.915Z,99461.14
2019-05-10T01:30:44.225Z,99462.45
2019-05-10T01:32:51.625Z,99461.50
2019-05-10T01:34:58.929Z,99458.38
2019-05-10T01:37:06.363Z,99457.33
2019-05-10T01:39:13.692Z,99459.04
2019-05-10T01:41:21.192Z,99463.95
2019-05-10T01:43:28.517Z,99463.51
2019-05-10T01:45:35.892Z,99462.94
2019-05-10T01:47:43.282Z,99467.28
2019-05-10T01:49:50.537Z,99469.83
2019-05-10T01:51:57.835Z,99464.56
2019-05-10T01:54:05.190Z,99470.97
2019-05-10T01:56:12.569Z,99472.81
2019-05-10T01:58:19.756Z,99470.58
2019-05-10T02:00:27.010Z,99474.54
2019-05-10T02:02:34.418Z,99474.84
2019-05-10T02:04:41.777Z,99470.45
2019-05-10T02:06:49.594Z,99472.16
2019-05-10T02:08:56.884Z,99477.37
2019-05-10T02:11:04.432Z,99470.00
2019-05-10T02:13:12.638Z,99473.38
2019-05-10T02:15:20.054Z,99480.36
2019-05-10T02:17:27.443Z,99479.05
2019-05-10T02:19:34.775Z,99475.27
2019-05-10T02:21:42.091Z,99485.80
2019-05-10T02:23:49.413Z,99479.40
2019-05-10T02:26:08.904Z,99481.11
2019-05-10T02:28:05.805Z,99474.22
2019-05-10T02:30:13.410Z,99474.27
2019-05-10T02:32:20.708Z,99470.36
2019-05-10T02:34:28.092Z,99485.45
2019-05-10T02:36:35.299Z,99488.66
2019-05-10T02:38:42.521Z,99490.53
2019-05-10T02:40:49.853Z,99481.98
2019-05-10T02:42:57.181Z,99482.39
2019-05-10T02:45:04.874Z,99487.33
2019-05-10T02:47:12.187Z,99481.34
2019-05-10T02:49:20.233Z,99480.92
2019-05-10T02:51:27.464Z,99482.25
2019-05-10T02:53:35.670Z,99479.82
2019-05-10T02:55:43.897Z,99482.33
2019-05-10T02:57:51.500Z,99479.91
2019-05-10T03:00:01.777Z,99479.79
2019-05-10T03:02:09.633Z,99479.16
2019-05-10T03:04:17.044Z,99477.76
2019-05-10T03:06:28.890Z,99484.73
2019-05-10T03:08:51.284Z,99475.90
2019-05-10T03:11:00.225Z,99479.94
2019-05-10T03:13:09.119Z,99481.70
2019-05-10T03:15:16.686Z,99484.37
2019-05-10T03:17:24.486Z,99482.87
2019-05-10T03:19:34.362Z,99488.50
2019-05-10T03:21:46.387Z,99485.74
2019-05-10T03:23:53.887Z,99493.83
2019-05-10T03:26:01.997Z,99488.86
2019-05-10T03:28:09.202Z,99485.39
2019-05-10T03:30:16.948Z,99492.42
2019-05-10T03:32:24.333Z,99494.52
2019-05-10T03:34:31.700Z,99496.28
2019-05-10T03:36:39.893Z,99505.31
2019-05-10T03:38:47.812Z,99502.31
2019-05-10T03:40:55.362Z,99505.61
2019-05-10T03:43:02.595Z,99503.11
2019-05-10T03:45:10.604Z,99506.81
2019-05-10T03:47:17.947Z,99505.48
2019-05-10T03:49:25.172Z,99507.20
2019-05-10T03:51:32.376Z,99508.60
2019-05-10T03:53:39.646Z,99502.41
2019-05-10T03:55:46.903Z,99506.06
2019-05-10T03:57:54.127Z,99507.27
2019-05-10T04:00:01.300Z,99514.23
2019-05-10T04:02:08.662Z,99515.16
2019-05-10T04:04:16.129Z,99518.09
2019-05-10T04:06:23.455Z,99521.56
2019-05-10T04:08:30.886Z,99512.35
2019-05-10T04:10:38.215Z,99520.70
2019-05-10T04:12:45.442Z,99514.09
2019-05-10T04:14:52.764Z,99516.27
2019-05-10T04:17:00.031Z,99522.26
2019-05-10T04:19:07.345Z,99519.27
2019-05-10T04:21:14.570Z,99519.86
2019-05-10T04:23:22.042Z,99517.61
2019-05-10T04:25:29.518Z,99521.69
2019-05-10T04:27:36.842Z,99519.53
2019-05-10T04:29:44.189Z,99522.26
2019-05-10T04:31:51.520Z,99518.58
2019-05-10T04:33:58.871Z,99525.84
2019-05-10T04:36:06.190Z,99523.58
2019-05-10T04:38:14.433Z,99525.58
2019-05-10T04:40:21.786Z,99528.13
2019-05-10T04:42:29.072Z,99526.95
2019-05-10T04:44:36.257Z,99532.72
2019-05-10T04:46:43.631Z,99526.97
2019-05-10T04:48:50.929Z,99528.55
2019-05-10T04:50:58.365Z,99526.33
2019-05-10T04:53:05.741Z,99526.59
2019-05-10T04:55:13.565Z,99522.08
2019-05-10T04:57:20.826Z,99525.28
2019-05-10T04:59:28.222Z,99525.38
2019-05-10T05:01:35.620Z,99532.61
2019-05-10T05:03:43.060Z,99534.86
2019-05-10T05:05:50.367Z,99529.04
2019-05-10T05:07:57.715Z,99534.47
2019-05-10T05:10:05.535Z,99528.16
2019-05-10T05:12:12.883Z,99541.32
2019-05-10T05:14:21.147Z,99541.02
2019-05-10T05:16:28.698Z,99547.00
2019-05-10T05:18:36.061Z,99537.06
2019-05-10T05:20:43.791Z,99540.54
2019-05-10T05:22:51.160Z,99539.40
2019-05-10T05:25:01.089Z,99551.87
2019-05-10T05:27:07.578Z,99545.15
2019-05-10T05:29:14.979Z,99545.47
2019-05-10T05:31:22.221Z,99543.45
2019-05-10T05:33:29.482Z,99546.03
2019-05-10T05:35:36.823Z,99549.98
2019-05-10T05:37:44.157Z,99544.04
2019-05-10T05:39:51.538Z,99554.51
2019-05-10T05:41:58.853Z,99551.48
2019-05-10T05:44:06.404Z,99552.67
2019-05-10T05:46:14.638Z,99548.84
2019-05-10T05:48:23.102Z,99550.47
2019-05-10T05:50:31.266Z,99558.50
2019-05-10T05:52:38.666Z,99561.13
2019-05-10T05:54:46.010Z,99562.38
2019-05-10T05:56:53.332Z,99564.39
2019-05-10T05:59:00.676Z,99562.50
2019-05-10T06:01:08.183Z,99561.53
2019-05-10T06:03:19.403Z,99564.55
2019-05-10T06:05:33.953Z,99567.14
2019-05-10T06:07:38.054Z,99562.29
2019-05-10T06:09:43.064Z,99570.28
2019-05-10T06:11:50.363Z,99566.52
2019-05-10T06:14:03.244Z,99568.57
2019-05-10T06:16:12.895Z,99567.81
2019-05-10T06:18:15.929Z,99568.55
2019-05-10T06:20:23.371Z,99564.72
2019-05-10T06:22:30.757Z,99566.59
2019-05-10T06:24:37.941Z,99570.83
2019-05-10T06:26:45.537Z,99568.28
2019-05-10T06:28:59.568Z,99570.44
2019-05-10T06:31:02.161Z,99562.10
2019-05-10T06:33:12.574Z,99564.06
2019-05-10T06:35:20.797Z,99566.41
2019-05-10T06:37:31.337Z,99567.14
2019-05-10T06:39:37.480Z,99567.37
2019-05-10T06:41:50.110Z,99573.69
2019-05-10T06:43:54.107Z,99570.91
2019-05-10T06:46:01.568Z,99574.11
2019-05-10T06:48:09.051Z,99581.43
2019-05-10T06:50:17.399Z,99577.84
2019-05-10T06:52:27.998Z,99578.96
2019-05-10T06:54:33.992Z,99577.05
2019-05-10T06:56:41.254Z,99576.16
2019-05-10T06:58:48.672Z,99573.50
2019-05-10T07:00:56.270Z,99577.92
2019-05-10T07:03:03.821Z,99579.80
2019-05-10T07:05:12.339Z,99578.66
2019-05-10T07:07:33.016Z,99585.01
2019-05-10T07:09:29.131Z,99582.28
2019-05-10T07:11:36.751Z,99586.77
2019-05-10T07:13:47.241Z,99586.97
2019-05-10T07:15:53.557Z,99585.08
2019-05-10T07:18:00.908Z,99591.03
2019-05-10T07:20:09.029Z,99588.39
2019-05-10T07:22:21.628Z,99591.34
2019-05-10T07:24:27.150Z,99585.62
2019-05-10T07:26:34.636Z,99588.13
2019-05-10T07:28:42.003Z,99589.63
2019-05-10T07:30:49.674Z,99589.05
2019-05-10T07:32:59.777Z,99590.59
2019-05-10T07:35:06.296Z,99594.58
2019-05-10T07:37:13.752Z,99588.11
2019-05-10T07:39:21.208Z,99590.02
2019-05-10T07:41:29.249Z,99590.84
2019-05-10T07:43:36.630Z,99589.58
2019-05-10T07:45:44.105Z,99587.77
2019-05-10T07:47:51.618Z,99596.69
2019-05-10T07:50:03.981Z,99595.52
2019-05-10T07:52:08.190Z,99592.00
2019-05-10T07:54:15.705Z,99593.92
2019-05-10T07:56:23.372Z,99601.70
2019-05-10T07:58:31.515Z,99606.83
2019-05-10T08:00:44.389Z,99606.76
2019-05-10T08:02:55.650Z,99601.98
2019-05-10T08:04:58.565Z,99602.27
2019-05-10T08:07:09.794Z,99609.53
2019-05-10T08:09:16.329Z,99612.27
2019-05-10T08:11:24.967Z,99613.34
2019-05-10T08:13:32.622Z,99616.58
2019-05-10T08:15:40.120Z,99616.77
2019-05-10T08:17:48.709Z,99622.16
2019-05-10T08:19:56.646Z,99624.16
2019-05-10T08:22:05.014Z,99619.27
2019-05-10T08:24:16.110Z,99626.86
2019-05-10T08:26:24.590Z,99631.31
2019-05-10T08:28:35.715Z,99628.52
2019-05-10T08:30:51.869Z,99627.80
2019-05-10T08:32:53.594Z,99630.25
2019-05-10T08:35:05.023Z,99625.25
2019-05-10T08:37:12.688Z,99631.17
2019-05-10T08:39:22.196Z,99639.55
2019-05-10T08:41:28.925Z,99632.88
2019-05-10T08:43:38.964Z,99637.77
2019-05-10T08:45:49.539Z,99637.72
2019-05-10T08:48:00.901Z,99639.35
2019-05-10T08:50:13.882Z,99650.36
2019-05-10T08:52:30.906Z,99648.62
2019-05-10T08:54:33.463Z,99646.25
2019-05-10T08:56:46.437Z,99649.67
2019-05-10T08:58:53.353Z,99654.58
2019-05-10T09:01:15.394Z,99653.84
2019-05-10T09:03:17.861Z,99660.13
2019-05-10T09:05:22.606Z,99663.30
2019-05-10T09:07:33.977Z,99660.33
2019-05-10T09:09:45.562Z,99658.89
2019-05-10T09:11:49.227Z,99666.64
2019-05-10T09:13:57.834Z,99666.28
2019-05-10T09:16:05.991Z,99671.78
2019-05-10T09:18:14.079Z,99673.34
2019-05-10T09:20:26.411Z,99673.30
2019-05-10T09:22:34.125Z,99673.30
2019-05-10T09:24:48.757Z,99674.91
2019-05-10T09:26:52.833Z,99675.80
2019-05-10T09:29:01.619Z,99676.67
2019-05-10T09:31:18.756Z,99676.19
2019-05-10T09:33:18.978Z,99681.37
2019-05-10T09:35:26.842Z,99673.88
2019-05-10T09:37:34.374Z,99677.70
2019-05-10T09:39:42.520Z,99685.84
2019-05-10T09:41:52.806Z,99678.00
2019-05-10T09:43:59.777Z,99680.05
2019-05-10T09:46:07.550Z,99676.83
2019-05-10T09:48:15.084Z,99684.66
2019-05-10T09:50:23.021Z,99682.51
2019-05-10T09:52:30.651Z,99682.06
2019-05-10T09:54:38.224Z,99686.31
2019-05-10T09:56:51.751Z,99684.99
2019-05-10T09:58:55.005Z,99684.54
2019-05-10T10:01:13.961Z,99686.07
2019-05-10T10:03:12.947Z,99688.37
2019-05-10T10:05:20.510Z,99683.22
2019-05-10T10:07:29.332Z,99691.22
2019-05-10T10:09:44.555Z,99694.56
2019-05-10T10:11:57.371Z,99695.05
2019-05-10T10:13:59.355Z,99702.99
2019-05-10T10:16:10.324Z,99698.77
2019-05-10T10:18:21.183Z,99706.18
2019-05-10T10:20:23.988Z,99708.92
2019-05-10T10:22:31.417Z,99704.80
2019-05-10T10:24:41.096Z,99704.13
2019-05-10T10:26:48.259Z,99704.72
2019-05-10T10:28:59.518Z,99705.73
2019-05-10T10:31:08.471Z,99715.97
2019-05-10T10:33:20.951Z,99709.70
2019-05-10T10:35:27.633Z,99712.40
2019-05-10T10:37:37.671Z,99717.10
2019-05-10T10:39:44.662Z,99714.39
2019-05-10T10:41:52.319Z,99716.16
2019-05-10T10:44:00.285Z,99723.17
2019-05-10T10:46:12.483Z,99712.86
2019-05-10T10:48:17.987Z,99717.70
2019-05-10T10:50:27.591Z,99722.75
2019-05-10T10:52:37.489Z,99724.08
2019-05-10T10:54:44.358Z,99729.97
2019-05-10T10:56:51.800Z,99734.28
2019-05-10T10:58:59.163Z,99726.48
2019-05-10T11:01:19.930Z,99728.16
2019-05-10T11:03:17.283Z,99727.77
2019-05-10T11:05:24.831Z,99727.00
2019-05-10T11:07:33.765Z,99736.41
2019-05-10T11:09:41.429Z,99727.14
2019-05-10T11:11:50.981Z,99736.06
2019-05-10T11:14:06.614Z,99730.31
2019-05-10T11:16:14.180Z,99733.91
2019-05-10T11:18:16.765Z,99730.17
2019-05-10T11:20:24.129Z,99730.06
2019-05-10T11:22:31.876Z,99740.56
2019-05-10T11:24:39.221Z,99740.31
2019-05-10T11:26:46.625Z,99738.16
2019-05-10T11:28:54.065Z,99744.08
2019-05-10T11:31:01.349Z,99744.22
2019-05-10T11:33:23.806Z,99737.03
2019-05-10T11:35:27.800Z,99741.14
2019-05-10T11:37:32.805Z,99742.00
2019-05-10T11:39:44.855Z,99739.84
2019-05-10T11:41:45.303Z,99741.56
2019-05-10T11:43:57.981Z,99741.95
2019-05-10T11:46:02.201Z,99743.27
2019-05-10T11:48:10.889Z,99745.19
2019-05-10T11:50:28.787Z,99747.37
2019-05-10T11:52:29.117Z,99746.64
2019-05-10T11:54:37.105Z,99744.72
2019-05-10T11:56:44.909Z,99746.91
2019-05-10T11:59:04.716Z,99748.34
2019-05-10T12:01:12.930Z,99752.43
2019-05-10T12:03:15.450Z,99749.54
2019-05-10T12:05:22.712Z,99751.00
2019-05-10T12:09:37.892Z,99751.63
2019-05-10T12:11:51.615Z,99753.78
2019-05-10T12:13:57.419Z,99754.77
2019-05-10T12:16:03.384Z,99752.84
2019-05-10T12:18:14.689Z,99758.62
2019-05-10T12:20:26.878Z,99751.02
2019-05-10T12:22:37.588Z,99756.08
2019-05-10T12:24:52.205Z,99749.08
2019-05-10T12:26:59.026Z,99750.53
2019-05-10T12:27:12.677Z,99760.06
2019-05-10T12:29:02.750Z,99754.77
2019-05-10T12:31:07.677Z,99758.48
2019-05-10T12:33:23.894Z,99752.71
2019-05-10T12:35:26.539Z,99751.23
2019-05-10T12:37:32.530Z,99747.62
2019-05-10T12:39:39.892Z,99748.80
2019-05-10T12:41:49.796Z,99748.69
2019-05-10T12:44:02.877Z,99748.45
2019-05-10T12:46:05.490Z,99752.30
2019-05-10T12:48:12.820Z,99757.37
2019-05-10T12:50:21.096Z,99751.92
2019-05-10T12:52:28.981Z,99757.11
2019-05-10T12:54:37.625Z,99754.45
2019-05-10T12:56:46.142Z,99756.27
2019-05-10T12:58:57.897Z,99759.91
2019-05-10T13:01:02.707Z,99758.18
2019-05-10T13:03:13.131Z,99753.51
2019-05-10T13:05:31.234Z,99761.81
2019-05-10T13:07:29.243Z,99756.34
2019-05-10T13:09:40.597Z,99765.15
2019-05-10T13:11:45.672Z,99760.22
2019-05-10T13:13:52.899Z,99761.50
2019-05-10T13:16:03.540Z,99759.80
2019-05-10T13:18:09.338Z,99757.45
2019-05-10T13:20:17.264Z,99761.11
2019-05-10T13:22:24.631Z,99758.62
2019-05-10T13:24:31.970Z,99767.36
2019-05-10T13:26:39.191Z,99771.52
2019-05-10T13:28:46.593Z,99769.22
2019-05-10T13:30:53.999Z,99769.25
2019-05-10T13:33:01.265Z,99759.52
2019-05-10T13:35:09.164Z,99757.08
2019-05-10T13:37:23.076Z,99761.73
2019-05-10T13:39:27.603Z,99755.35
2019-05-10T13:41:34.570Z,99754.95
2019-05-10T13:43:41.964Z,99760.49
2019-05-10T13:45:49.319Z,99765.66
2019-05-10T13:47:56.803Z,99766.61
2019-05-10T13:50:04.119Z,99765.37
2019-05-10T13:52:11.631Z,99766.94
2019-05-10T13:54:18.971Z,99763.31
2019-05-10T13:56:26.314Z,99767.38
2019-05-10T13:58:33.715Z,99771.50
2019-05-10T14:00:41.167Z,99769.89
2019-05-10T14:02:48.395Z,99767.30
2019-05-10T14:04:55.720Z,99768.39
2019-05-10T14:07:03.031Z,99766.86
2019-05-10T14:09:10.567Z,99778.06
2019-05-10T14:11:18.358Z,99777.57
2019-05-10T14:13:25.741Z,99781.63
2019-05-10T14:15:33.971Z,99775.84
2019-05-10T14:17:41.303Z,99776.95
2019-05-10T14:19:48.541Z,99774.17
2019-05-10T14:21:55.913Z,99767.64
2019-05-10T14:24:03.420Z,99776.36
2019-05-10T14:26:16.007Z,99775.74
2019-05-10T14:28:19.956Z,99774.03
2019-05-10T14:30:27.329Z,99773.55
2019-05-10T14:32:34.782Z,99777.88
2019-05-10T14:34:44.224Z,99778.16
2019-05-10T14:36:51.288Z,99776.61
2019-05-10T14:38:58.740Z,99775.59
2019-05-10T14:41:10.985Z,99785.14
2019-05-10T14:43:15.327Z,99783.39
2019-05-10T14:45:23.048Z,99780.98
2019-05-10T14:47:30.396Z,99781.31
2019-05-10T14:49:42.104Z,99784.62
2019-05-10T14:51:58.510Z,99789.33
2019-05-10T14:53:58.179Z,99794.23
2019-05-10T14:56:08.123Z,99788.27
2019-05-10T14:58:14.977Z,99795.41
2019-05-10T15:00:23.360Z,99796.58
2019-05-10T15:02:30.780Z,99795.79
2019-05-10T15:04:46.870Z,99794.07
2019-05-10T15:06:47.122Z,99798.00
2019-05-10T15:08:54.607Z,99787.19
2019-05-10T15:11:02.050Z,99788.00
2019-05-10T15:13:09.798Z,99790.84
2019-05-10T15:15:17.593Z,99798.20
2019-05-10T15:17:25.017Z,99791.89
2019-05-10T15:19:32.573Z,99793.09
2019-05-10T15:21:40.276Z,99795.36
2019-05-10T15:23:48.172Z,99793.66
2019-05-10T15:25:57.929Z,99799.06
2019-05-10T15:28:05.628Z,99796.50
2019-05-10T15:30:14.383Z,99802.91
2019-05-10T15:32:22.213Z,99803.44
2019-05-10T15:34:30.786Z,99800.58
2019-05-10T15:36:38.766Z,99808.94
2019-05-10T15:38:50.352Z,99804.80
2019-05-10T15:40:55.621Z,99805.81
2019-05-10T15:43:03.534Z,99809.31
2019-05-10T15:45:14.145Z,99810.58
2019-05-10T15:47:22.456Z,99811.20
2019-05-10T15:49:30.382Z,99816.45
2019-05-10T15:51:37.928Z,99811.66
2019-05-10T15:53:45.854Z,99818.16
2019-05-10T15:55:59.127Z,99819.95
2019-05-10T15:58:03.493Z,99820.55
2019-05-10T16:00:12.671Z,99817.70
2019-05-10T16:02:20.296Z,99820.85
2019-05-10T16:04:27.788Z,99822.21
2019-05-10T16:06:37.729Z,99822.86
2019-05-10T16:08:44.263Z,99825.33
2019-05-10T16:10:51.627Z,99821.55
2019-05-10T16:12:59.208Z,99834.64
2019-05-10T16:15:13.634Z,99828.08
2019-05-10T16:17:23.173Z,99830.14
2019-05-10T16:19:26.919Z,99830.76
2019-05-10T16:21:34.291Z,99838.39
2019-05-10T16:23:46.747Z,99838.89
2019-05-10T16:25:50.860Z,99842.02
2019-05-10T16:27:58.316Z,99843.17
2019-05-10T16:30:11.881Z,99843.56
2019-05-10T16:32:16.670Z,99843.13
2019-05-10T16:34:26.455Z,99842.53
2019-05-10T16:36:33.194Z,99843.16
2019-05-10T16:38:40.744Z,99839.71
2019-05-10T16:40:56.822Z,99847.69
2019-05-10T16:42:57.859Z,99850.08
2019-05-10T16:45:05.676Z,99849.14
2019-05-10T16:47:13.097Z,99851.00
2019-05-10T16:49:20.716Z,99850.13
2019-05-10T16:51:28.141Z,99851.01
2019-05-10T16:53:37.872Z,99851.96
2019-05-10T16:55:44.761Z,99854.28
2019-05-10T16:57:52.197Z,99846.23
2019-05-10T17:00:02.193Z,99856.59
2019-05-10T17:02:11.824Z,99860.12
2019-05-10T17:04:18.008Z,99866.50
2019-05-10T17:06:25.466Z,99860.23
2019-05-10T17:08:36.573Z,99869.67
2019-05-10T17:10:42.189Z,99864.63
2019-05-10T17:12:49.551Z,99874.16
2019-05-10T17:15:02.332Z,99870.77
2019-05-10T17:17:06.098Z,99874.78
2019-05-10T17:19:13.483Z,99874.41
2019-05-10T17:21:20.858Z,99879.59
2019-05-10T17:23:28.509Z,99881.18
2019-05-10T17:25:40.712Z,99881.86
2019-05-10T17:27:50.463Z,99880.91
2019-05-10T17:29:54.631Z,99883.68
2019-05-10T17:32:01.962Z,99887.91
2019-05-10T17:34:09.368Z,99892.23
2019-05-10T17:36:19.866Z,99890.31
2019-05-10T17:38:25.880Z,99891.78
2019-05-10T17:40:33.466Z,99898.28
2019-05-10T17:42:41.581Z,99894.18
2019-05-10T17:44:55.118Z,99902.61
2019-05-10T17:46:59.080Z,99903.20
2019-05-10T17:49:06.556Z,99902.84
2019-05-10T17:51:14.032Z,99902.84
2019-05-10T17:53:21.581Z,99905.59
2019-05-10T17:55:28.899Z,99907.53
2019-05-10T17:57:36.265Z,99910.86
2019-05-10T17:59:46.848Z,99914.61
2019-05-10T18:01:52.782Z,99917.41
2019-05-10T18:04:00.071Z,99920.03
2019-05-10T18:06:22.690Z,99927.95
2019-05-10T18:08:16.889Z,99929.04
2019-05-10T18:10:24.480Z,99926.59
2019-05-10T18:12:32.133Z,99927.98
2019-05-10T18:14:40.147Z,99933.50
2019-05-10T18:16:50.091Z,99932.41
2019-05-10T18:18:57.370Z,99929.38
2019-05-10T18:21:05.070Z,99929.62
2019-05-10T18:23:20.050Z,99934.88
2019-05-10T18:25:22.362Z,99939.73
2019-05-10T18:27:30.013Z,99938.31
2019-05-10T18:29:37.514Z,99934.98
2019-05-10T18:31:54.459Z,99937.48
2019-05-10T18:33:55.942Z,99939.96
2019-05-10T18:36:03.576Z,99943.86
2019-05-10T18:38:11.101Z,99939.76
2019-05-10T18:40:19.010Z,99947.30
2019-05-10T18:42:27.972Z,99951.19
2019-05-10T18:44:36.162Z,99951.91
2019-05-10T18:46:43.944Z,99951.01
2019-05-10T18:48:51.580Z,99948.78
2019-05-10T18:50:59.372Z,99950.20
2019-05-10T18:53:06.904Z,99956.82
2019-05-10T18:55:14.810Z,99962.11
2019-05-10T18:57:22.537Z,99964.24
2019-05-10T18:59:30.216Z,99962.72
2019-05-10T19:01:39.195Z,99962.50
2019-05-10T19:03:47.375Z,99965.66
2019-05-10T19:05:55.065Z,99965.08
2019-05-10T19:08:05.631Z,99968.74
2019-05-10T19:10:12.481Z,99966.51
2019-05-10T19:12:22.729Z,99963.12
2019-05-10T19:14:30.044Z,99963.53
2019-05-10T19:16:38.773Z,99965.11
2019-05-10T19:18:46.204Z,99973.77
2019-05-10T19:20:55.151Z,99976.05
2019-05-10T19:23:05.339Z,99982.20
2019-05-10T19:25:14.496Z,99977.41
2019-05-10T19:27:24.914Z,99976.96
2019-05-10T19:29:31.264Z,99974.80
2019-05-10T19:31:40.396Z,99978.09
2019-05-10T19:33:48.044Z,99982.83
2019-05-10T19:35:55.409Z,99978.33
2019-05-10T19:38:02.768Z,99979.13
2019-05-10T19:40:10.952Z,99978.81
2019-05-10T19:42:18.409Z,99978.75
2019-05-10T19:44:25.930Z,99983.47
2019-05-10T19:46:39.109Z,99980.41
2019-05-10T19:48:44.168Z,99980.62
2019-05-10T19:50:51.655Z,99983.44
2019-05-10T19:53:03.746Z,99987.97
2019-05-10T19:55:12.944Z,99988.84
2019-05-10T19:57:18.917Z,99997.05
2019-05-10T19:59:27.473Z,99996.48
2019-05-10T20:01:34.911Z,100002.15
2019-05-10T20:03:42.366Z,100000.08
2019-05-10T20:05:49.752Z,99996.69
2019-05-10T20:07:57.064Z,99993.70
2019-05-10T20:10:08.383Z,99997.16
2019-05-10T20:12:15.885Z,99999.08
2019-05-10T20:14:23.555Z,100001.70
2019-05-10T20:16:31.015Z,100002.55
2019-05-10T20:18:38.431Z,99999.55
2019-05-10T20:20:45.861Z,99997.56
2019-05-10T20:22:54.291Z,99995.97
2019-05-10T20:25:01.735Z,100000.48
2019-05-10T20:27:09.203Z,100005.77
2019-05-10T20:29:17.287Z,100007.45
2019-05-10T20:31:25.127Z,100002.17
2019-05-10T20:33:32.500Z,100007.36
2019-05-10T20:35:39.871Z,100015.95
2019-05-10T20:38:00.786Z,100007.09
2019-05-10T20:39:57.042Z,100006.41
2019-05-10T20:42:04.416Z,100006.13
2019-05-10T20:44:12.923Z,100007.84
2019-05-10T20:46:20.525Z,100005.95
2019-05-10T20:48:27.907Z,100009.84
2019-05-10T20:50:35.591Z,100011.78
2019-05-10T20:52:43.063Z,100010.30
2019-05-10T20:54:50.545Z,100008.59
2019-05-10T20:56:58.022Z,100012.74
2019-05-10T20:59:05.544Z,100020.86
2019-05-10T21:01:12.939Z,100025.38
2019-05-10T21:03:21.690Z,100016.51
2019-05-10T21:05:29.091Z,100019.15
2019-05-10T21:07:36.764Z,100018.22
2019-05-10T21:09:44.305Z,100022.91
2019-05-10T21:11:51.722Z,100031.39
2019-05-10T21:14:00.471Z,100029.88
2019-05-10T21:16:08.140Z,100027.44
2019-05-10T21:18:15.598Z,100032.91
2019-05-10T21:20:22.962Z,100033.47
2019-05-10T21:22:30.387Z,100035.52
2019-05-10T21:24:37.875Z,100032.48
2019-05-10T21:26:45.579Z,100041.52
2019-05-10T21:28:52.956Z,100040.03
2019-05-10T21:31:00.495Z,100039.19
2019-05-10T21:33:08.072Z,100044.48
2019-05-10T21:35:15.767Z,100041.68
2019-05-10T21:37:23.262Z,100041.47
2019-05-10T21:39:30.621Z,100035.23
2019-05-10T21:41:39.564Z,100034.48
2019-05-10T21:43:47.347Z,100028.92
2019-05-10T21:45:55.048Z,100034.53
2019-05-10T21:48:02.737Z,100031.05
2019-05-10T21:50:10.454Z,100033.21
2019-05-10T21:52:17.903Z,100038.67
2019-05-10T21:54:25.474Z,100039.67
2019-05-10T21:56:35.596Z,100038.91
2019-05-10T21:58:42.485Z,100037.31
2019-05-10T22:00:53.467Z,100043.04
2019-05-10T22:03:00.829Z,100035.20
2019-05-10T22:05:08.535Z,100035.08
2019-05-10T22:07:16.110Z,100040.41
2019-05-10T22:09:23.339Z,100035.80
2019-05-10T22:11:30.798Z,100022.41
2019-05-10T22:13:38.152Z,100033.10
2019-05-10T22:15:46.248Z,100035.58
2019-05-10T22:17:53.694Z,100031.76
2019-05-10T22:20:01.146Z,100032.73
2019-05-10T22:22:08.440Z,100036.47
2019-05-10T22:24:15.777Z,100036.61
2019-05-10T22:26:23.085Z,100033.16
2019-05-10T22:28:30.336Z,100034.64
2019-05-10T22:30:38.181Z,100033.00
2019-05-10T22:32:45.558Z,100034.79
2019-05-10T22:34:52.941Z,100026.61
2019-05-10T22:37:00.363Z,100033.69
2019-05-10T22:39:08.705Z,100027.86
2019-05-10T22:41:15.928Z,100030.30
2019-05-10T22:43:23.230Z,100026.92
2019-05-10T22:45:30.728Z,100022.69
2019-05-10T22:47:38.099Z,100026.16
2019-05-10T22:49:45.655Z,100028.55
2019-05-10T22:51:52.954Z,100020.17
2019-05-10T22:54:00.472Z,100022.45
2019-05-10T22:56:07.919Z,100017.89
2019-05-10T22:58:15.238Z,100018.30
2019-05-10T23:00:22.808Z,100023.28
2019-05-10T23:02:30.197Z,100016.77
2019-05-10T23:04:37.545Z,100016.02
2019-05-10T23:06:44.913Z,100021.30
2019-05-10T23:08:52.300Z,100020.73
2019-05-10T23:10:59.731Z,100025.33
2019-05-10T23:13:07.153Z,100022.49
2019-05-10T23:15:14.970Z,100016.02
2019-05-10T23:17:22.339Z,100018.73
2019-05-10T23:19:29.589Z,100018.57
2019-05-10T23:21:36.951Z,100012.34
2019-05-10T23:23:44.358Z,100012.14
2019-05-10T23:25:51.993Z,100009.81
2019-05-10T23:27:59.354Z,100013.21
2019-05-10T23:30:07.742Z,100016.41
2019-05-10T23:32:15.021Z,100009.81
2019-05-10T23:34:22.447Z,100009.05
2019-05-10T23:36:29.967Z,100010.94
2019-05-10T23:38:37.332Z,100017.61
2019-05-10T23:40:44.625Z,100010.02
2019-05-10T23:42:52.137Z,100017.92
2019-05-10T23:44:59.403Z,100017.81
2019-05-10T23:47:06.644Z,100016.89
2019-05-10T23:49:14.063Z,100019.89
2019-05-10T23:51:21.347Z,100014.80
2019-05-10T23:53:28.596Z,100015.56
2019-05-10T23:55:35.840Z,100015.83
2019-05-10T23:57:43.090Z,100024.22
2019-05-10T23:59:50.445Z,100017.26
